createdAt,value
2019-05-02T00:01:31.391Z,82.60
2019-05-02T00:04:01.715Z,82.50
2019-05-02T00:06:32.499Z,82.60
2019-05-02T00:09:04.053Z,82.50
2019-05-02T00:11:34.732Z,82.60
2019-05-02T00:14:05.284Z,82.70
2019-05-02T00:16:36.014Z,82.40
2019-05-02T00:19:09.271Z,82.30
2019-05-02T00:21:42.617Z,82.40
2019-05-02T00:24:11.474Z,82.50
2019-05-02T00:26:41.799Z,82.60
2019-05-02T00:29:11.916Z,82.80
2019-05-02T00:31:46.859Z,82.60
2019-05-02T00:34:13.998Z,82.80
2019-05-02T00:36:44.118Z,82.70
2019-05-02T00:39:15.193Z,82.90
2019-05-02T00:41:45.383Z,82.80
2019-05-02T00:44:16.316Z,83.00
2019-05-02T00:46:46.640Z,82.90
2019-05-02T00:49:16.760Z,82.90
2019-05-02T00:51:46.879Z,83.20
2019-05-02T00:54:19.308Z,83.20
2019-05-02T00:56:48.757Z,82.90
2019-05-02T00:59:19.086Z,83.10
2019-05-02T01:01:53.874Z,83.20
2019-05-02T01:04:31.608Z,83.20
2019-05-02T01:07:01.931Z,83.30
2019-05-02T01:09:32.982Z,83.30
2019-05-02T01:12:07.768Z,83.30
2019-05-02T01:14:34.642Z,83.40
2019-05-02T01:17:04.679Z,83.40
2019-05-02T01:19:34.984Z,83.60
2019-05-02T01:22:05.520Z,83.60
2019-05-02T01:24:39.935Z,83.70
2019-05-02T01:27:20.703Z,83.80
2019-05-02T01:29:55.533Z,83.60
2019-05-02T01:32:30.308Z,83.80
2019-05-02T01:35:06.217Z,84.00
2019-05-02T01:37:54.810Z,84.00
2019-05-02T01:40:25.910Z,84.20
2019-05-02T01:42:57.670Z,84.20
2019-05-02T01:45:27.785Z,84.20
2019-05-02T01:47:58.936Z,84.30
2019-05-02T01:50:33.411Z,84.30
2019-05-02T01:53:00.601Z,84.50
2019-05-02T01:55:32.768Z,84.40
2019-05-02T01:58:02.889Z,84.50
2019-05-02T02:00:33.217Z,84.70
2019-05-02T02:03:04.252Z,84.60
2019-05-02T02:05:35.293Z,84.50
2019-05-02T02:08:06.117Z,84.30
2019-05-02T02:10:36.351Z,84.50
2019-05-02T02:13:07.494Z,84.30
2019-05-02T02:15:37.820Z,84.40
2019-05-02T02:18:07.942Z,84.40
2019-05-02T02:20:55.054Z,84.40
2019-05-02T02:23:49.251Z,84.60
2019-05-02T02:26:21.100Z,84.60
2019-05-02T02:28:54.086Z,84.40
2019-05-02T02:31:24.411Z,84.50
2019-05-02T02:33:54.529Z,84.60
2019-05-02T02:36:31.821Z,84.50
2019-05-02T02:38:56.406Z,84.60
2019-05-02T02:41:26.528Z,84.50
2019-05-02T02:44:14.886Z,84.40
2019-05-02T02:46:52.365Z,84.50
2019-05-02T02:49:24.588Z,84.30
2019-05-02T02:51:58.222Z,84.30
2019-05-02T02:54:26.818Z,84.40
2019-05-02T02:56:56.936Z,84.40
2019-05-02T02:59:28.295Z,84.40
2019-05-02T03:02:08.727Z,84.50
2019-05-02T03:04:30.365Z,84.30
2019-05-02T03:07:00.487Z,84.40
2019-05-02T03:09:30.814Z,84.50
2019-05-02T03:12:18.951Z,84.30
2019-05-02T03:14:50.913Z,84.70
2019-05-02T03:17:26.410Z,84.70
2019-05-02T03:19:54.549Z,84.70
2019-05-02T03:22:24.764Z,84.70
2019-05-02T03:24:55.079Z,84.90
2019-05-02T03:27:29.971Z,84.80
2019-05-02T03:29:57.771Z,85.80
2019-05-02T03:32:34.458Z,85.10
2019-05-02T03:34:59.856Z,85.00
2019-05-02T03:37:30.008Z,85.10
2019-05-02T03:40:00.832Z,85.20
2019-05-02T03:42:43.716Z,85.30
2019-05-02T03:45:04.902Z,85.10
2019-05-02T03:47:37.060Z,85.40
2019-05-02T03:50:09.479Z,85.30
2019-05-02T03:52:43.763Z,85.60
2019-05-02T03:55:10.858Z,85.40
2019-05-02T03:57:42.184Z,85.50
2019-05-02T04:00:21.109Z,85.60
2019-05-02T04:02:45.912Z,85.90
2019-05-02T04:05:16.154Z,85.70
2019-05-02T04:07:47.412Z,85.80
2019-05-02T04:10:38.999Z,86.30
2019-05-02T04:13:10.145Z,85.90
2019-05-02T04:15:40.676Z,85.70
2019-05-02T04:18:15.193Z,85.50
2019-05-02T04:20:49.755Z,85.70
2019-05-02T04:23:21.076Z,85.70
2019-05-02T04:25:48.729Z,85.80
2019-05-02T04:28:19.869Z,85.90
2019-05-02T04:30:51.302Z,85.80
2019-05-02T04:33:21.962Z,86.30
2019-05-02T04:35:52.297Z,86.50
2019-05-02T04:38:31.466Z,86.60
2019-05-02T04:40:54.155Z,86.30
2019-05-02T04:43:24.280Z,86.70
2019-05-02T04:45:57.432Z,86.40
2019-05-02T04:48:28.423Z,86.60
2019-05-02T04:50:59.758Z,86.50
2019-05-02T04:53:36.779Z,86.70
2019-05-02T04:56:07.171Z,86.80
2019-05-02T04:58:36.816Z,86.90
2019-05-02T05:01:04.323Z,87.10
2019-05-02T05:03:34.442Z,87.00
2019-05-02T05:06:08.056Z,87.00
2019-05-02T05:08:38.891Z,86.90
2019-05-02T05:11:07.919Z,87.00
2019-05-02T05:13:38.196Z,89.90
2019-05-02T05:16:14.880Z,90.50
2019-05-02T05:18:43.984Z,90.00
2019-05-02T05:21:11.830Z,89.00
2019-05-02T05:23:59.652Z,88.90
2019-05-02T05:26:28.862Z,88.20
2019-05-02T05:28:58.983Z,88.30
2019-05-02T05:31:29.415Z,88.20
2019-05-02T05:33:59.832Z,88.20
2019-05-02T05:36:33.874Z,88.00
2019-05-02T05:39:03.055Z,87.80
2019-05-02T05:41:33.471Z,87.90
2019-05-02T05:44:03.593Z,87.90
2019-05-02T05:46:38.110Z,88.00
2019-05-02T05:49:05.462Z,87.90
2019-05-02T05:51:37.440Z,87.90
2019-05-02T05:54:07.785Z,88.10
2019-05-02T05:56:42.956Z,88.20
2019-05-02T05:59:10.042Z,88.50
2019-05-02T06:01:40.505Z,88.40
2019-05-02T06:04:13.830Z,88.50
2019-05-02T06:06:42.239Z,88.50
2019-05-02T06:09:13.954Z,88.70
2019-05-02T06:11:44.320Z,88.60
2019-05-02T06:14:14.661Z,89.20
2019-05-02T06:16:46.591Z,89.20
2019-05-02T06:19:17.809Z,89.10
2019-05-02T06:21:48.070Z,89.30
2019-05-02T06:24:18.190Z,89.60
2019-05-02T06:26:49.909Z,89.40
2019-05-02T06:29:20.909Z,89.60
2019-05-02T06:31:51.423Z,89.70
2019-05-02T06:34:21.536Z,89.80
2019-05-02T06:36:51.656Z,89.80
2019-05-02T06:39:21.772Z,89.60
2019-05-02T06:41:56.757Z,89.90
2019-05-02T06:44:25.216Z,89.70
2019-05-02T06:46:59.360Z,90.00
2019-05-02T06:49:26.758Z,89.90
2019-05-02T06:51:57.691Z,90.30
2019-05-02T06:54:28.041Z,90.30
2019-05-02T06:56:58.138Z,90.00
2019-05-02T06:59:28.463Z,90.00
2019-05-02T07:01:58.803Z,89.60
2019-05-02T07:04:29.110Z,89.90
2019-05-02T07:06:59.950Z,89.50
2019-05-02T07:09:40.400Z,89.80
2019-05-02T07:12:02.335Z,89.50
2019-05-02T07:14:32.865Z,89.40
2019-05-02T07:17:07.509Z,89.50
2019-05-02T07:19:42.113Z,89.60
2019-05-02T07:22:12.369Z,89.50
2019-05-02T07:24:42.557Z,89.90
2019-05-02T07:27:12.881Z,89.70
2019-05-02T07:29:43.001Z,90.00
2019-05-02T07:32:13.326Z,90.10
2019-05-02T07:34:44.207Z,90.20
2019-05-02T07:37:15.200Z,90.20
2019-05-02T07:39:45.321Z,90.20
2019-05-02T07:42:15.437Z,90.40
2019-05-02T07:44:45.567Z,90.40
2019-05-02T07:47:15.679Z,90.50
2019-05-02T07:49:45.803Z,90.70
2019-05-02T07:52:15.917Z,90.70
2019-05-02T07:54:46.241Z,91.00
2019-05-02T07:57:16.361Z,90.90
2019-05-02T07:59:49.511Z,90.90
2019-05-02T08:02:20.197Z,90.90
2019-05-02T08:04:49.992Z,91.10
2019-05-02T08:07:21.169Z,91.10
2019-05-02T08:09:51.872Z,91.00
2019-05-02T08:12:21.990Z,91.20
2019-05-02T08:14:52.113Z,91.20
2019-05-02T08:17:22.240Z,91.20
2019-05-02T08:19:52.349Z,91.00
2019-05-02T08:22:22.467Z,91.20
2019-05-02T08:24:52.798Z,91.20
2019-05-02T08:27:29.163Z,91.30
2019-05-02T08:30:00.087Z,91.30
2019-05-02T08:32:28.679Z,91.30
2019-05-02T08:34:58.798Z,91.40
2019-05-02T08:37:28.914Z,91.30
2019-05-02T08:39:59.246Z,91.50
2019-05-02T08:42:32.558Z,91.40
2019-05-02T08:45:03.112Z,91.40
2019-05-02T08:47:33.078Z,91.40
2019-05-02T08:50:03.609Z,91.50
2019-05-02T08:52:36.856Z,91.30
2019-05-02T08:55:09.755Z,91.50
2019-05-02T08:57:39.010Z,91.50
2019-05-02T09:00:11.459Z,91.50
2019-05-02T09:02:42.130Z,91.40
2019-05-02T09:05:12.880Z,91.40
2019-05-02T09:07:43.310Z,91.50
2019-05-02T09:10:14.198Z,91.60
2019-05-02T09:12:45.575Z,91.70
2019-05-02T09:15:16.465Z,91.70
2019-05-02T09:17:52.719Z,91.90
2019-05-02T09:20:20.736Z,91.70
2019-05-02T09:22:52.236Z,92.00
2019-05-02T09:25:22.030Z,91.50
2019-05-02T09:27:52.773Z,91.90
2019-05-02T09:30:25.818Z,92.20
2019-05-02T09:32:57.120Z,92.20
2019-05-02T09:35:26.849Z,92.50
2019-05-02T09:37:56.971Z,92.50
2019-05-02T09:40:27.086Z,92.40
2019-05-02T09:43:01.629Z,92.50
2019-05-02T09:45:33.358Z,92.60
2019-05-02T09:48:07.098Z,91.90
2019-05-02T09:50:34.448Z,92.00
2019-05-02T09:53:05.697Z,92.20
2019-05-02T09:55:35.790Z,92.40
2019-05-02T09:58:06.048Z,92.40
2019-05-02T10:00:37.873Z,92.40
2019-05-02T10:03:08.207Z,92.30
2019-05-02T10:05:38.325Z,92.40
2019-05-02T10:08:11.622Z,92.40
2019-05-02T10:10:44.262Z,92.30
2019-05-02T10:13:12.235Z,92.40
2019-05-02T10:15:42.899Z,92.50
2019-05-02T10:18:14.551Z,92.60
2019-05-02T10:20:44.971Z,92.70
2019-05-02T10:23:19.538Z,92.80
2019-05-02T10:25:47.086Z,93.00
2019-05-02T10:28:17.379Z,92.90
2019-05-02T10:30:51.710Z,93.20
2019-05-02T10:33:19.457Z,93.30
2019-05-02T10:35:52.469Z,93.30
2019-05-02T10:38:22.874Z,93.10
2019-05-02T10:40:54.549Z,93.20
2019-05-02T10:43:24.849Z,93.20
2019-05-02T10:45:56.631Z,93.20
2019-05-02T10:48:28.775Z,93.10
2019-05-02T10:51:16.301Z,93.40
2019-05-02T10:53:47.063Z,93.20
2019-05-02T10:56:18.178Z,93.10
2019-05-02T10:58:48.501Z,93.10
2019-05-02T11:01:21.840Z,93.10
2019-05-02T11:03:53.454Z,93.20
2019-05-02T11:06:23.774Z,93.20
2019-05-02T11:08:54.089Z,93.20
2019-05-02T11:11:25.156Z,93.20
2019-05-02T11:14:00.786Z,93.00
2019-05-02T11:16:35.925Z,93.20
2019-05-02T11:19:07.888Z,93.30
2019-05-02T11:21:38.009Z,93.20
2019-05-02T11:24:08.125Z,93.30
2019-05-02T11:26:38.244Z,93.40
2019-05-02T11:29:08.571Z,93.40
2019-05-02T11:31:38.688Z,93.20
2019-05-02T11:34:08.806Z,93.10
2019-05-02T11:36:39.130Z,93.20
2019-05-02T11:39:18.537Z,93.10
2019-05-02T11:41:42.243Z,93.40
2019-05-02T11:44:12.562Z,93.10
2019-05-02T11:46:46.751Z,93.20
2019-05-02T11:49:14.641Z,93.10
2019-05-02T11:51:47.078Z,93.10
2019-05-02T11:54:18.163Z,93.00
2019-05-02T11:56:49.197Z,93.00
2019-05-02T11:59:20.777Z,93.00
2019-05-02T12:01:59.355Z,93.00
2019-05-02T12:04:24.779Z,93.00
2019-05-02T12:07:01.008Z,93.00
2019-05-02T12:09:26.654Z,93.00
2019-05-02T12:11:56.811Z,92.80
2019-05-02T12:14:27.432Z,92.90
2019-05-02T12:16:58.651Z,93.00
2019-05-02T12:19:28.768Z,92.90
2019-05-02T12:21:59.093Z,93.00
2019-05-02T12:24:29.216Z,93.00
2019-05-02T12:26:59.332Z,93.10
2019-05-02T12:29:29.451Z,93.00
2019-05-02T12:31:59.776Z,92.90
2019-05-02T12:34:30.101Z,92.80
2019-05-02T12:37:01.738Z,92.90
2019-05-02T12:39:31.978Z,93.00
2019-05-02T12:42:05.564Z,92.80
2019-05-02T12:44:36.105Z,92.70
2019-05-02T12:47:06.428Z,92.70
2019-05-02T12:49:36.550Z,92.60
2019-05-02T12:52:06.680Z,92.50
2019-05-02T12:54:36.786Z,92.50
2019-05-02T12:57:07.110Z,92.50
2019-05-02T12:59:37.238Z,92.50
2019-05-02T13:02:12.079Z,92.60
2019-05-02T13:04:41.924Z,92.40
2019-05-02T13:07:12.751Z,92.40
2019-05-02T13:09:43.237Z,92.40
2019-05-02T13:12:22.303Z,92.40
2019-05-02T13:14:52.992Z,92.10
2019-05-02T13:17:23.444Z,92.10
2019-05-02T13:19:57.071Z,92.10
2019-05-02T13:22:45.580Z,92.30
2019-05-02T13:25:17.752Z,92.00
2019-05-02T13:27:48.281Z,91.90
2019-05-02T13:30:21.949Z,91.90
2019-05-02T13:32:57.731Z,91.90
2019-05-02T13:35:34.395Z,91.80
2019-05-02T13:38:05.459Z,91.80
2019-05-02T13:40:41.679Z,91.70
2019-05-02T13:43:12.574Z,91.70
2019-05-02T13:45:54.135Z,91.90
2019-05-02T13:48:24.453Z,91.50
2019-05-02T13:50:54.574Z,91.60
2019-05-02T13:53:24.697Z,91.60
2019-05-02T13:55:57.783Z,91.50
2019-05-02T13:58:32.668Z,91.30
2019-05-02T14:01:03.401Z,91.20
2019-05-02T14:03:33.361Z,91.10
2019-05-02T14:06:03.692Z,91.10
2019-05-02T14:08:37.003Z,91.10
2019-05-02T14:11:08.839Z,91.00
2019-05-02T14:13:39.181Z,91.00
2019-05-02T14:16:09.287Z,90.90
2019-05-02T14:18:39.404Z,90.60
2019-05-02T14:21:09.724Z,90.60
2019-05-02T14:23:41.908Z,90.50
2019-05-02T14:26:11.770Z,90.50
2019-05-02T14:28:43.328Z,90.70
2019-05-02T14:31:13.686Z,90.70
2019-05-02T14:33:45.442Z,90.70
2019-05-02T14:36:15.560Z,90.60
2019-05-02T14:38:45.680Z,90.30
2019-05-02T14:41:17.440Z,90.30
2019-05-02T14:43:55.547Z,90.20
2019-05-02T14:46:34.317Z,90.10
2019-05-02T14:48:58.038Z,89.90
2019-05-02T14:51:28.384Z,89.00
2019-05-02T14:54:06.123Z,88.80
2019-05-02T14:56:37.486Z,89.30
2019-05-02T14:59:09.350Z,89.20
2019-05-02T15:01:38.497Z,89.50
2019-05-02T15:04:08.583Z,89.50
2019-05-02T15:06:42.811Z,88.80
2019-05-02T15:09:12.061Z,88.70
2019-05-02T15:12:03.138Z,88.40
2019-05-02T15:14:35.076Z,87.70
2019-05-02T15:17:07.066Z,87.90
2019-05-02T15:19:37.170Z,87.50
2019-05-02T15:22:07.680Z,88.00
2019-05-02T15:24:38.053Z,87.30
2019-05-02T15:27:17.301Z,86.60
2019-05-02T15:29:42.060Z,86.70
2019-05-02T15:32:17.164Z,86.60
2019-05-02T15:35:04.078Z,86.40
2019-05-02T15:37:35.802Z,86.50
2019-05-02T15:42:42.633Z,86.40
2019-05-02T15:45:12.971Z,86.50
2019-05-02T15:47:45.431Z,85.80
2019-05-02T15:50:23.807Z,86.50
2019-05-02T15:52:49.352Z,86.60
2019-05-02T15:55:19.890Z,86.20
2019-05-02T15:57:50.207Z,86.10
2019-05-02T16:00:28.311Z,85.40
2019-05-02T16:03:01.449Z,85.20
2019-05-02T16:05:31.906Z,84.50
2019-05-02T16:08:07.847Z,84.50
2019-05-02T16:10:38.377Z,83.50
2019-05-02T16:13:08.754Z,84.00
2019-05-02T16:15:40.087Z,84.10
2019-05-02T16:18:10.409Z,84.40
2019-05-02T16:21:04.157Z,83.60
2019-05-02T16:23:29.510Z,84.40
2019-05-02T16:25:56.844Z,84.40
2019-05-02T16:28:25.632Z,83.60
2019-05-02T16:30:57.390Z,83.80
2019-05-02T16:33:27.511Z,84.10
2019-05-02T16:35:57.630Z,83.10
2019-05-02T16:38:33.636Z,83.20
2019-05-02T16:41:04.002Z,83.80
2019-05-02T16:43:32.844Z,83.80
2019-05-02T16:46:06.714Z,82.50
2019-05-02T16:48:37.682Z,82.70
2019-05-02T16:51:28.096Z,82.40
2019-05-02T16:53:38.499Z,81.90
2019-05-02T16:56:08.618Z,82.80
2019-05-02T16:58:43.390Z,81.40
2019-05-02T17:01:12.299Z,81.70
2019-05-02T17:03:42.413Z,82.30
2019-05-02T17:06:12.494Z,81.60
2019-05-02T17:09:02.476Z,82.10
2019-05-02T17:11:35.840Z,81.20
2019-05-02T17:14:07.004Z,81.60
2019-05-02T17:16:38.042Z,80.90
2019-05-02T17:19:08.161Z,80.40
2019-05-02T17:21:52.411Z,80.80
2019-05-02T17:24:10.447Z,80.30
2019-05-02T17:26:42.249Z,79.00
2019-05-02T17:29:16.515Z,79.00
2019-05-02T17:31:44.285Z,79.30
2019-05-02T17:34:14.938Z,78.50
2019-05-02T17:36:45.843Z,78.60
2019-05-02T17:39:18.655Z,78.60
2019-05-02T17:41:48.040Z,77.60
2019-05-02T17:44:22.115Z,78.60
2019-05-02T17:46:57.899Z,77.40
2019-05-02T17:49:23.854Z,77.10
2019-05-02T17:52:19.731Z,76.80
2019-05-02T17:54:43.213Z,76.40
2019-05-02T17:57:13.331Z,75.80
2019-05-02T17:59:43.657Z,75.80
2019-05-02T18:02:15.862Z,75.50
2019-05-02T18:04:46.690Z,75.10
2019-05-02T18:07:18.170Z,75.30
2019-05-02T18:09:48.639Z,75.30
2019-05-02T18:12:18.757Z,75.30
2019-05-02T18:14:53.114Z,74.50
2019-05-02T18:17:22.019Z,74.70
2019-05-02T18:19:56.569Z,75.20
2019-05-02T18:22:26.416Z,75.30
2019-05-02T18:24:55.905Z,74.80
2019-05-02T18:27:26.229Z,75.20
2019-05-02T18:29:56.351Z,75.10
2019-05-02T18:32:26.674Z,74.60
2019-05-02T18:35:01.211Z,74.40
2019-05-02T18:37:28.549Z,74.40
2019-05-02T18:39:58.670Z,73.70
2019-05-02T18:42:28.992Z,74.30
2019-05-02T18:45:01.649Z,73.90
2019-05-02T18:47:33.488Z,73.80
2019-05-02T18:50:06.116Z,73.40
2019-05-02T18:52:38.112Z,73.90
2019-05-02T18:55:07.372Z,73.30
2019-05-02T18:57:37.489Z,73.60
2019-05-02T19:00:08.551Z,73.10
2019-05-02T19:02:39.162Z,73.30
2019-05-02T19:05:13.507Z,73.70
2019-05-02T19:07:42.857Z,73.20
2019-05-02T19:10:13.004Z,73.20
2019-05-02T19:12:43.137Z,72.90
2019-05-02T19:15:13.856Z,72.60
2019-05-02T19:17:44.178Z,72.30
2019-05-02T19:20:32.547Z,72.60
2019-05-02T19:23:03.464Z,72.50
2019-05-02T19:25:33.584Z,71.80
2019-05-02T19:28:05.465Z,71.60
2019-05-02T19:30:37.302Z,72.40
2019-05-02T19:33:07.993Z,72.30
2019-05-02T19:35:45.307Z,71.70
2019-05-02T19:38:11.700Z,71.40
2019-05-02T19:40:42.754Z,71.70
2019-05-02T19:43:14.776Z,71.80
2019-05-02T19:45:45.738Z,71.40
2019-05-02T19:48:16.534Z,71.80
2019-05-02T19:50:46.857Z,71.30
2019-05-02T19:53:18.338Z,71.40
2019-05-02T19:55:48.942Z,71.40
2019-05-02T19:58:19.060Z,71.00
2019-05-02T20:00:49.388Z,71.60
2019-05-02T20:03:22.202Z,71.40
2019-05-02T20:05:56.563Z,71.10
2019-05-02T20:08:24.659Z,71.60
2019-05-02T20:10:58.348Z,70.40
2019-05-02T20:13:28.520Z,71.60
2019-05-02T20:16:17.968Z,71.00
2019-05-02T20:18:48.299Z,70.80
2019-05-02T20:21:32.650Z,71.30
2019-05-02T20:24:04.247Z,70.20
2019-05-02T20:26:34.718Z,70.80
2019-05-02T20:29:05.088Z,70.40
2019-05-02T20:31:35.562Z,70.30
2019-05-02T20:34:06.091Z,69.80
2019-05-02T20:36:38.666Z,70.40
2019-05-02T20:39:14.047Z,70.50
2019-05-02T20:41:44.642Z,69.80
2019-05-02T20:44:14.969Z,69.30
2019-05-02T20:46:45.493Z,70.30
2019-05-02T20:49:15.816Z,69.60
2019-05-02T20:51:45.944Z,70.60
2019-05-02T20:54:16.057Z,70.20
2019-05-02T20:56:46.093Z,70.20
2019-05-02T20:59:16.252Z,70.40
2019-05-02T21:01:47.811Z,70.40
2019-05-02T21:04:17.968Z,70.70
2019-05-02T21:07:07.748Z,70.40
2019-05-02T21:09:48.310Z,70.50
2019-05-02T21:12:18.432Z,70.70
2019-05-02T21:14:48.550Z,70.60
2019-05-02T21:17:18.669Z,70.20
2019-05-02T21:19:48.786Z,70.80
2019-05-02T21:22:22.201Z,70.20
2019-05-02T21:24:52.921Z,70.90
2019-05-02T21:27:23.091Z,70.30
2019-05-02T21:29:53.362Z,70.20
2019-05-02T21:32:23.683Z,70.00
2019-05-02T21:34:54.212Z,70.40
2019-05-02T21:37:25.296Z,70.30
2019-05-02T21:39:55.475Z,70.10
2019-05-02T21:42:25.799Z,70.50
2019-05-02T21:44:55.921Z,70.00
2019-05-02T21:47:26.041Z,69.60
2019-05-02T21:49:58.207Z,70.30
2019-05-02T21:52:44.913Z,70.00
2019-05-02T21:55:22.405Z,70.30
2019-05-02T21:57:52.522Z,70.30
2019-05-02T22:00:43.535Z,71.40
2019-05-02T22:03:14.267Z,71.00
2019-05-02T22:05:44.797Z,71.50
2019-05-02T22:08:14.914Z,70.90
2019-05-02T22:10:45.035Z,71.60
2019-05-02T22:13:15.153Z,72.90
2019-05-02T22:15:45.270Z,72.90
2019-05-02T22:18:15.390Z,73.00
2019-05-02T22:20:45.515Z,72.80
2019-05-02T22:23:15.645Z,72.80
2019-05-02T22:25:45.753Z,72.50
2019-05-02T22:28:15.870Z,72.50
2019-05-02T22:30:45.987Z,73.10
2019-05-02T22:33:16.107Z,72.90
2019-05-02T22:35:46.225Z,73.50
2019-05-02T22:38:22.210Z,73.20
2019-05-02T22:40:53.851Z,73.30
2019-05-02T22:43:24.160Z,72.90
2019-05-02T22:45:54.290Z,73.00
2019-05-02T22:48:24.606Z,73.10
2019-05-02T22:50:54.722Z,73.40
2019-05-02T22:53:24.845Z,73.50
2019-05-02T22:55:54.961Z,73.30
2019-05-02T22:58:25.079Z,73.10
2019-05-02T23:00:55.406Z,72.80
2019-05-02T23:03:25.521Z,72.90
2019-05-02T23:05:55.852Z,73.10
2019-05-02T23:08:25.970Z,73.00
2019-05-02T23:10:56.086Z,73.40
2019-05-02T23:13:26.410Z,74.20
2019-05-02T23:15:56.742Z,72.90
2019-05-02T23:18:27.056Z,73.40
2019-05-02T23:20:57.176Z,73.80
2019-05-02T23:23:27.297Z,73.20
2019-05-02T23:25:59.053Z,72.80
2019-05-02T23:28:33.475Z,73.20
2019-05-02T23:31:03.593Z,73.50
2019-05-02T23:33:51.701Z,73.80
2019-05-02T23:36:22.072Z,73.80
2019-05-02T23:38:52.270Z,74.10
2019-05-02T23:41:22.500Z,74.20
2019-05-02T23:43:52.826Z,73.90
2019-05-02T23:46:23.283Z,73.80
2019-05-02T23:48:53.685Z,73.50
2019-05-02T23:51:23.798Z,73.70
2019-05-02T23:53:53.926Z,74.00
2019-05-02T23:56:24.036Z,74.30
2019-05-02T23:58:54.155Z,73.70
